sensor_id;sensor_type;location;lat;lon;timestamp;P1;durP1;ratioP1;P2;durP2;ratioP2
75297;SDS011;63896;45.990;18.688;2023-12-22T00:02:07;26.40;;;12.43;;
75297;SDS011;63896;45.990;18.688;2023-12-22T00:05:09;22.23;;;10.47;;
75297;SDS011;63896;45.990;18.688;2023-12-22T00:08:12;20.48;;;10.38;;
75297;SDS011;63896;45.990;18.688;2023-12-22T00:11:15;19.58;;;9.68;;
75297;SDS011;63896;45.990;18.688;2023-12-22T00:14:17;22.15;;;9.50;;
75297;SDS011;63896;45.990;18.688;2023-12-22T00:17:20;19.37;;;10.07;;
75297;SDS011;63896;45.990;18.688;2023-12-22T00:20:23;19.63;;;9.80;;
75297;SDS011;63896;45.990;18.688;2023-12-22T00:23:26;21.13;;;10.18;;
75297;SDS011;63896;45.990;18.688;2023-12-22T00:26:29;18.05;;;9.40;;
75297;SDS011;63896;45.990;18.688;2023-12-22T00:29:31;18.55;;;8.75;;
75297;SDS011;63896;45.990;18.688;2023-12-22T00:32:38;18.17;;;8.00;;
75297;SDS011;63896;45.990;18.688;2023-12-22T00:35:40;18.93;;;8.73;;
75297;SDS011;63896;45.990;18.688;2023-12-22T00:38:43;18.10;;;8.07;;
75297;SDS011;63896;45.990;18.688;2023-12-22T00:41:46;18.05;;;7.72;;
75297;SDS011;63896;45.990;18.688;2023-12-22T00:44:48;14.57;;;7.72;;
75297;SDS011;63896;45.990;18.688;2023-12-22T00:47:51;15.93;;;6.57;;
75297;SDS011;63896;45.990;18.688;2023-12-22T00:50:55;17.00;;;7.17;;
75297;SDS011;63896;45.990;18.688;2023-12-22T00:53:57;15.07;;;7.30;;
75297;SDS011;63896;45.990;18.688;2023-12-22T00:57:00;14.73;;;7.03;;
75297;SDS011;63896;45.990;18.688;2023-12-22T01:00:03;16.35;;;7.93;;
75297;SDS011;63896;45.990;18.688;2023-12-22T01:03:08;21.13;;;8.13;;
75297;SDS011;63896;45.990;18.688;2023-12-22T01:06:11;13.20;;;6.77;;
75297;SDS011;63896;45.990;18.688;2023-12-22T01:09:13;14.02;;;7.07;;
75297;SDS011;63896;45.990;18.688;2023-12-22T01:12:17;13.10;;;7.40;;
75297;SDS011;63896;45.990;18.688;2023-12-22T01:15:20;14.75;;;7.13;;
75297;SDS011;63896;45.990;18.688;2023-12-22T01:18:22;15.03;;;8.13;;
75297;SDS011;63896;45.990;18.688;2023-12-22T01:21:27;14.63;;;7.23;;
75297;SDS011;63896;45.990;18.688;2023-12-22T01:24:30;12.68;;;7.22;;
75297;SDS011;63896;45.990;18.688;2023-12-22T01:27:33;13.18;;;6.20;;
75297;SDS011;63896;45.990;18.688;2023-12-22T01:30:35;12.93;;;6.40;;
75297;SDS011;63896;45.990;18.688;2023-12-22T01:33:38;11.10;;;5.53;;
75297;SDS011;63896;45.990;18.688;2023-12-22T01:36:41;10.93;;;4.70;;
75297;SDS011;63896;45.990;18.688;2023-12-22T01:39:44;11.25;;;4.95;;
75297;SDS011;63896;45.990;18.688;2023-12-22T01:42:47;11.27;;;5.40;;
75297;SDS011;63896;45.990;18.688;2023-12-22T01:45:55;9.60;;;4.68;;
75297;SDS011;63896;45.990;18.688;2023-12-22T01:48:59;10.57;;;5.27;;
75297;SDS011;63896;45.990;18.688;2023-12-22T01:52:03;14.93;;;5.37;;
75297;SDS011;63896;45.990;18.688;2023-12-22T01:55:07;8.52;;;4.72;;
75297;SDS011;63896;45.990;18.688;2023-12-22T01:58:13;7.07;;;3.53;;
75297;SDS011;63896;45.990;18.688;2023-12-22T02:01:16;7.57;;;4.45;;
75297;SDS011;63896;45.990;18.688;2023-12-22T02:04:19;8.60;;;4.73;;
75297;SDS011;63896;45.990;18.688;2023-12-22T02:07:23;12.70;;;4.47;;
75297;SDS011;63896;45.990;18.688;2023-12-22T02:10:25;9.93;;;5.10;;
75297;SDS011;63896;45.990;18.688;2023-12-22T02:13:28;12.63;;;6.30;;
75297;SDS011;63896;45.990;18.688;2023-12-22T02:19:52;11.57;;;6.23;;
75297;SDS011;63896;45.990;18.688;2023-12-22T02:22:55;13.27;;;6.20;;
75297;SDS011;63896;45.990;18.688;2023-12-22T02:26:02;16.42;;;6.95;;
75297;SDS011;63896;45.990;18.688;2023-12-22T02:29:12;13.23;;;6.78;;
75297;SDS011;63896;45.990;18.688;2023-12-22T02:32:37;12.75;;;6.47;;
75297;SDS011;63896;45.990;18.688;2023-12-22T02:35:42;13.13;;;6.30;;
75297;SDS011;63896;45.990;18.688;2023-12-22T02:38:48;12.67;;;6.77;;
75297;SDS011;63896;45.990;18.688;2023-12-22T02:41:52;15.85;;;8.00;;
75297;SDS011;63896;45.990;18.688;2023-12-22T02:44:56;12.77;;;7.45;;
75297;SDS011;63896;45.990;18.688;2023-12-22T02:48:00;12.95;;;7.30;;
75297;SDS011;63896;45.990;18.688;2023-12-22T02:51:03;14.63;;;7.50;;
75297;SDS011;63896;45.990;18.688;2023-12-22T02:54:06;12.17;;;7.13;;
75297;SDS011;63896;45.990;18.688;2023-12-22T02:57:09;12.18;;;6.60;;
75297;SDS011;63896;45.990;18.688;2023-12-22T03:00:12;11.35;;;6.68;;
75297;SDS011;63896;45.990;18.688;2023-12-22T03:03:15;9.32;;;5.07;;
75297;SDS011;63896;45.990;18.688;2023-12-22T03:06:17;11.23;;;5.83;;
75297;SDS011;63896;45.990;18.688;2023-12-22T03:09:20;9.83;;;5.07;;
75297;SDS011;63896;45.990;18.688;2023-12-22T03:12:24;10.65;;;5.82;;
75297;SDS011;63896;45.990;18.688;2023-12-22T03:15:26;9.65;;;5.10;;
75297;SDS011;63896;45.990;18.688;2023-12-22T03:18:29;8.15;;;3.67;;
75297;SDS011;63896;45.990;18.688;2023-12-22T03:21:32;8.03;;;4.57;;
75297;SDS011;63896;45.990;18.688;2023-12-22T03:24:35;6.80;;;3.90;;
75297;SDS011;63896;45.990;18.688;2023-12-22T03:27:39;8.50;;;4.43;;
75297;SDS011;63896;45.990;18.688;2023-12-22T03:30:42;7.03;;;3.65;;
75297;SDS011;63896;45.990;18.688;2023-12-22T03:33:45;7.95;;;4.32;;
75297;SDS011;63896;45.990;18.688;2023-12-22T03:36:47;7.00;;;4.10;;
75297;SDS011;63896;45.990;18.688;2023-12-22T03:39:51;10.07;;;4.13;;
75297;SDS011;63896;45.990;18.688;2023-12-22T03:42:54;6.25;;;3.55;;
75297;SDS011;63896;45.990;18.688;2023-12-22T03:45:57;7.20;;;3.85;;
75297;SDS011;63896;45.990;18.688;2023-12-22T03:49:00;6.53;;;3.25;;
75297;SDS011;63896;45.990;18.688;2023-12-22T03:52:03;6.13;;;3.40;;
75297;SDS011;63896;45.990;18.688;2023-12-22T03:55:06;6.93;;;3.30;;
75297;SDS011;63896;45.990;18.688;2023-12-22T03:58:09;5.85;;;3.00;;
75297;SDS011;63896;45.990;18.688;2023-12-22T04:01:15;5.13;;;2.63;;
75297;SDS011;63896;45.990;18.688;2023-12-22T04:04:19;6.75;;;2.30;;
75297;SDS011;63896;45.990;18.688;2023-12-22T04:07:22;5.10;;;2.27;;
75297;SDS011;63896;45.990;18.688;2023-12-22T04:10:24;3.73;;;1.57;;
75297;SDS011;63896;45.990;18.688;2023-12-22T04:13:27;4.00;;;1.90;;
75297;SDS011;63896;45.990;18.688;2023-12-22T04:16:30;3.83;;;1.50;;
75297;SDS011;63896;45.990;18.688;2023-12-22T04:19:33;4.28;;;1.73;;
75297;SDS011;63896;45.990;18.688;2023-12-22T04:22:35;2.50;;;1.57;;
75297;SDS011;63896;45.990;18.688;2023-12-22T04:25:38;3.33;;;1.67;;
75297;SDS011;63896;45.990;18.688;2023-12-22T04:28:41;3.33;;;1.55;;
75297;SDS011;63896;45.990;18.688;2023-12-22T04:31:44;2.95;;;1.50;;
75297;SDS011;63896;45.990;18.688;2023-12-22T04:34:47;2.95;;;1.58;;
75297;SDS011;63896;45.990;18.688;2023-12-22T04:37:49;7.00;;;2.93;;
75297;SDS011;63896;45.990;18.688;2023-12-22T04:40:52;5.73;;;3.00;;
75297;SDS011;63896;45.990;18.688;2023-12-22T04:43:55;5.68;;;2.55;;
75297;SDS011;63896;45.990;18.688;2023-12-22T04:46:58;6.13;;;3.33;;
75297;SDS011;63896;45.990;18.688;2023-12-22T04:50:01;4.32;;;2.40;;
75297;SDS011;63896;45.990;18.688;2023-12-22T04:53:04;7.13;;;3.47;;
75297;SDS011;63896;45.990;18.688;2023-12-22T04:56:07;3.47;;;2.07;;
75297;SDS011;63896;45.990;18.688;2023-12-22T04:59:09;6.82;;;2.00;;
75297;SDS011;63896;45.990;18.688;2023-12-22T05:02:12;5.32;;;1.67;;
75297;SDS011;63896;45.990;18.688;2023-12-22T05:05:15;2.90;;;1.30;;
75297;SDS011;63896;45.990;18.688;2023-12-22T05:08:18;3.83;;;1.40;;
75297;SDS011;63896;45.990;18.688;2023-12-22T05:11:21;2.73;;;1.20;;
75297;SDS011;63896;45.990;18.688;2023-12-22T05:14:24;2.90;;;1.20;;
75297;SDS011;63896;45.990;18.688;2023-12-22T05:17:26;3.40;;;1.10;;
75297;SDS011;63896;45.990;18.688;2023-12-22T05:20:29;2.45;;;1.27;;
75297;SDS011;63896;45.990;18.688;2023-12-22T05:23:32;4.30;;;1.70;;
75297;SDS011;63896;45.990;18.688;2023-12-22T05:26:35;3.33;;;1.73;;
75297;SDS011;63896;45.990;18.688;2023-12-22T05:29:37;3.55;;;1.45;;
75297;SDS011;63896;45.990;18.688;2023-12-22T05:32:40;4.07;;;2.03;;
75297;SDS011;63896;45.990;18.688;2023-12-22T05:35:43;7.75;;;2.22;;
75297;SDS011;63896;45.990;18.688;2023-12-22T05:38:46;6.50;;;1.70;;
75297;SDS011;63896;45.990;18.688;2023-12-22T05:41:50;4.90;;;2.00;;
75297;SDS011;63896;45.990;18.688;2023-12-22T05:44:52;4.60;;;2.25;;
75297;SDS011;63896;45.990;18.688;2023-12-22T05:47:55;8.73;;;2.92;;
75297;SDS011;63896;45.990;18.688;2023-12-22T05:50:58;5.30;;;2.42;;
75297;SDS011;63896;45.990;18.688;2023-12-22T05:54:01;5.17;;;2.60;;
75297;SDS011;63896;45.990;18.688;2023-12-22T05:57:04;4.17;;;2.50;;
75297;SDS011;63896;45.990;18.688;2023-12-22T06:00:08;6.05;;;2.47;;
75297;SDS011;63896;45.990;18.688;2023-12-22T06:03:13;6.18;;;2.80;;
75297;SDS011;63896;45.990;18.688;2023-12-22T06:06:16;6.03;;;2.38;;
75297;SDS011;63896;45.990;18.688;2023-12-22T06:09:20;7.50;;;2.90;;
75297;SDS011;63896;45.990;18.688;2023-12-22T06:12:24;4.53;;;2.83;;
75297;SDS011;63896;45.990;18.688;2023-12-22T06:15:27;7.55;;;3.03;;
75297;SDS011;63896;45.990;18.688;2023-12-22T06:18:30;6.40;;;2.75;;
75297;SDS011;63896;45.990;18.688;2023-12-22T06:21:32;9.07;;;3.20;;
75297;SDS011;63896;45.990;18.688;2023-12-22T06:24:35;4.97;;;2.90;;
75297;SDS011;63896;45.990;18.688;2023-12-22T06:27:38;6.90;;;3.53;;
75297;SDS011;63896;45.990;18.688;2023-12-22T06:30:41;7.63;;;3.85;;
75297;SDS011;63896;45.990;18.688;2023-12-22T06:33:45;9.73;;;4.63;;
75297;SDS011;63896;45.990;18.688;2023-12-22T06:36:49;12.75;;;5.57;;
75297;SDS011;63896;45.990;18.688;2023-12-22T06:39:52;9.93;;;5.17;;
75297;SDS011;63896;45.990;18.688;2023-12-22T06:42:55;8.47;;;4.40;;
75297;SDS011;63896;45.990;18.688;2023-12-22T06:45:57;5.78;;;3.33;;
75297;SDS011;63896;45.990;18.688;2023-12-22T06:49:00;16.02;;;5.95;;
75297;SDS011;63896;45.990;18.688;2023-12-22T06:52:07;11.75;;;5.55;;
75297;SDS011;63896;45.990;18.688;2023-12-22T06:55:09;8.73;;;4.60;;
75297;SDS011;63896;45.990;18.688;2023-12-22T06:58:13;9.23;;;5.03;;
75297;SDS011;63896;45.990;18.688;2023-12-22T07:08:09;8.88;;;5.03;;
75297;SDS011;63896;45.990;18.688;2023-12-22T07:11:12;8.53;;;4.73;;
75297;SDS011;63896;45.990;18.688;2023-12-22T07:14:16;9.83;;;4.43;;
75297;SDS011;63896;45.990;18.688;2023-12-22T07:17:24;10.85;;;5.22;;
75297;SDS011;63896;45.990;18.688;2023-12-22T07:20:27;11.60;;;5.25;;
75297;SDS011;63896;45.990;18.688;2023-12-22T07:23:30;12.13;;;5.95;;
75297;SDS011;63896;45.990;18.688;2023-12-22T07:26:32;9.80;;;5.67;;
75297;SDS011;63896;45.990;18.688;2023-12-22T07:29:35;12.13;;;6.50;;
75297;SDS011;63896;45.990;18.688;2023-12-22T07:32:39;12.70;;;5.82;;
75297;SDS011;63896;45.990;18.688;2023-12-22T07:35:44;11.20;;;5.07;;
75297;SDS011;63896;45.990;18.688;2023-12-22T07:38:47;9.52;;;4.40;;
75297;SDS011;63896;45.990;18.688;2023-12-22T07:41:49;9.97;;;4.80;;
75297;SDS011;63896;45.990;18.688;2023-12-22T07:44:52;12.17;;;5.40;;
75297;SDS011;63896;45.990;18.688;2023-12-22T07:47:55;15.18;;;7.15;;
75297;SDS011;63896;45.990;18.688;2023-12-22T07:50:58;16.15;;;6.80;;
75297;SDS011;63896;45.990;18.688;2023-12-22T07:54:01;11.98;;;4.30;;
75297;SDS011;63896;45.990;18.688;2023-12-22T07:57:03;7.10;;;3.77;;
75297;SDS011;63896;45.990;18.688;2023-12-22T08:00:07;9.20;;;4.47;;
75297;SDS011;63896;45.990;18.688;2023-12-22T08:03:14;9.60;;;4.30;;
75297;SDS011;63896;45.990;18.688;2023-12-22T08:06:17;12.95;;;6.40;;
75297;SDS011;63896;45.990;18.688;2023-12-22T08:09:20;16.00;;;7.78;;
75297;SDS011;63896;45.990;18.688;2023-12-22T08:12:24;15.10;;;6.60;;
75297;SDS011;63896;45.990;18.688;2023-12-22T08:15:28;14.00;;;7.03;;
75297;SDS011;63896;45.990;18.688;2023-12-22T08:18:38;14.82;;;5.85;;
75297;SDS011;63896;45.990;18.688;2023-12-22T08:21:42;9.00;;;4.70;;
75297;SDS011;63896;45.990;18.688;2023-12-22T08:24:48;10.52;;;4.28;;
75297;SDS011;63896;45.990;18.688;2023-12-22T08:27:52;7.50;;;3.80;;
75297;SDS011;63896;45.990;18.688;2023-12-22T08:30:54;4.97;;;3.70;;
75297;SDS011;63896;45.990;18.688;2023-12-22T08:33:57;6.35;;;3.35;;
75297;SDS011;63896;45.990;18.688;2023-12-22T08:37:00;7.75;;;4.30;;
75297;SDS011;63896;45.990;18.688;2023-12-22T08:40:03;7.53;;;4.13;;
75297;SDS011;63896;45.990;18.688;2023-12-22T08:43:08;7.45;;;3.63;;
75297;SDS011;63896;45.990;18.688;2023-12-22T08:46:11;6.87;;;3.37;;
75297;SDS011;63896;45.990;18.688;2023-12-22T08:49:15;6.05;;;3.45;;
75297;SDS011;63896;45.990;18.688;2023-12-22T08:52:18;5.32;;;3.00;;
75297;SDS011;63896;45.990;18.688;2023-12-22T08:55:20;6.53;;;3.50;;
75297;SDS011;63896;45.990;18.688;2023-12-22T08:58:23;5.20;;;3.30;;
75297;SDS011;63896;45.990;18.688;2023-12-22T09:01:26;4.27;;;2.07;;
75297;SDS011;63896;45.990;18.688;2023-12-22T09:04:29;4.53;;;2.75;;
75297;SDS011;63896;45.990;18.688;2023-12-22T09:07:32;4.30;;;2.47;;
75297;SDS011;63896;45.990;18.688;2023-12-22T09:10:35;4.75;;;2.40;;
75297;SDS011;63896;45.990;18.688;2023-12-22T09:13:38;2.65;;;2.08;;
75297;SDS011;63896;45.990;18.688;2023-12-22T09:16:41;4.03;;;2.40;;
75297;SDS011;63896;45.990;18.688;2023-12-22T09:19:46;3.47;;;1.80;;
75297;SDS011;63896;45.990;18.688;2023-12-22T09:22:49;3.05;;;2.00;;
75297;SDS011;63896;45.990;18.688;2023-12-22T09:25:52;3.08;;;2.28;;
75297;SDS011;63896;45.990;18.688;2023-12-22T09:28:55;2.30;;;1.55;;
75297;SDS011;63896;45.990;18.688;2023-12-22T09:31:58;3.70;;;2.07;;
75297;SDS011;63896;45.990;18.688;2023-12-22T09:35:01;3.55;;;1.85;;
75297;SDS011;63896;45.990;18.688;2023-12-22T09:38:05;3.63;;;2.13;;
75297;SDS011;63896;45.990;18.688;2023-12-22T09:41:08;2.72;;;1.33;;
75297;SDS011;63896;45.990;18.688;2023-12-22T09:44:13;2.30;;;1.23;;
75297;SDS011;63896;45.990;18.688;2023-12-22T09:47:16;1.23;;;0.90;;
75297;SDS011;63896;45.990;18.688;2023-12-22T09:50:21;2.30;;;0.90;;
75297;SDS011;63896;45.990;18.688;2023-12-22T09:53:25;2.65;;;1.33;;
75297;SDS011;63896;45.990;18.688;2023-12-22T09:56:29;0.90;;;0.40;;
75297;SDS011;63896;45.990;18.688;2023-12-22T09:59:33;0.43;;;0.22;;
75297;SDS011;63896;45.990;18.688;2023-12-22T10:02:38;1.23;;;0.30;;
75297;SDS011;63896;45.990;18.688;2023-12-22T10:05:42;1.73;;;1.10;;
75297;SDS011;63896;45.990;18.688;2023-12-22T10:08:46;1.30;;;0.17;;
75297;SDS011;63896;45.990;18.688;2023-12-22T10:11:53;3.15;;;0.40;;
75297;SDS011;63896;45.990;18.688;2023-12-22T10:14:57;1.25;;;0.40;;
75297;SDS011;63896;45.990;18.688;2023-12-22T10:18:03;1.37;;;0.67;;
75297;SDS011;63896;45.990;18.688;2023-12-22T10:21:06;2.40;;;0.70;;
75297;SDS011;63896;45.990;18.688;2023-12-22T10:24:36;0.82;;;0.57;;
75297;SDS011;63896;45.990;18.688;2023-12-22T10:27:51;0.47;;;0.40;;
75297;SDS011;63896;45.990;18.688;2023-12-22T10:30:54;5.15;;;1.05;;
75297;SDS011;63896;45.990;18.688;2023-12-22T10:33:59;0.93;;;0.20;;
75297;SDS011;63896;45.990;18.688;2023-12-22T10:37:02;0.90;;;0.30;;
75297;SDS011;63896;45.990;18.688;2023-12-22T10:40:08;0.70;;;0.28;;
75297;SDS011;63896;45.990;18.688;2023-12-22T10:43:11;3.10;;;1.00;;
75297;SDS011;63896;45.990;18.688;2023-12-22T10:46:15;4.10;;;1.00;;
75297;SDS011;63896;45.990;18.688;2023-12-22T10:49:18;1.67;;;0.73;;
75297;SDS011;63896;45.990;18.688;2023-12-22T10:52:21;3.53;;;0.77;;
75297;SDS011;63896;45.990;18.688;2023-12-22T10:55:24;2.20;;;0.80;;
75297;SDS011;63896;45.990;18.688;2023-12-22T10:58:28;1.27;;;0.60;;
75297;SDS011;63896;45.990;18.688;2023-12-22T11:01:31;2.13;;;1.10;;
75297;SDS011;63896;45.990;18.688;2023-12-22T11:04:40;4.83;;;1.50;;
75297;SDS011;63896;45.990;18.688;2023-12-22T11:07:48;2.90;;;0.77;;
75297;SDS011;63896;45.990;18.688;2023-12-22T11:10:53;14.63;;;6.15;;
75297;SDS011;63896;45.990;18.688;2023-12-22T11:14:01;5.32;;;1.42;;
75297;SDS011;63896;45.990;18.688;2023-12-22T11:17:04;2.25;;;0.60;;
75297;SDS011;63896;45.990;18.688;2023-12-22T11:20:09;1.63;;;0.90;;
75297;SDS011;63896;45.990;18.688;2023-12-22T11:23:12;4.22;;;1.30;;
75297;SDS011;63896;45.990;18.688;2023-12-22T11:26:18;1.65;;;0.70;;
75297;SDS011;63896;45.990;18.688;2023-12-22T11:29:22;6.65;;;2.08;;
75297;SDS011;63896;45.990;18.688;2023-12-22T11:32:28;3.15;;;1.35;;
75297;SDS011;63896;45.990;18.688;2023-12-22T11:35:31;5.73;;;1.80;;
75297;SDS011;63896;45.990;18.688;2023-12-22T11:38:36;5.63;;;1.90;;
75297;SDS011;63896;45.990;18.688;2023-12-22T11:41:39;6.18;;;1.80;;
75297;SDS011;63896;45.990;18.688;2023-12-22T11:44:44;6.63;;;2.55;;
75297;SDS011;63896;45.990;18.688;2023-12-22T11:47:47;3.65;;;1.50;;
75297;SDS011;63896;45.990;18.688;2023-12-22T11:50:50;2.53;;;0.87;;
75297;SDS011;63896;45.990;18.688;2023-12-22T11:53:54;6.88;;;1.48;;
75297;SDS011;63896;45.990;18.688;2023-12-22T11:56:59;1.83;;;0.55;;
75297;SDS011;63896;45.990;18.688;2023-12-22T12:00:06;2.05;;;0.63;;
75297;SDS011;63896;45.990;18.688;2023-12-22T12:03:37;2.80;;;1.05;;
75297;SDS011;63896;45.990;18.688;2023-12-22T12:06:44;6.40;;;0.87;;
75297;SDS011;63896;45.990;18.688;2023-12-22T12:09:47;3.42;;;1.58;;
75297;SDS011;63896;45.990;18.688;2023-12-22T12:13:03;1.70;;;0.45;;
75297;SDS011;63896;45.990;18.688;2023-12-22T12:16:07;2.05;;;0.52;;
75297;SDS011;63896;45.990;18.688;2023-12-22T12:19:10;2.33;;;0.60;;
75297;SDS011;63896;45.990;18.688;2023-12-22T12:22:14;3.70;;;0.80;;
75297;SDS011;63896;45.990;18.688;2023-12-22T12:25:17;6.00;;;1.70;;
75297;SDS011;63896;45.990;18.688;2023-12-22T12:28:30;2.53;;;1.05;;
75297;SDS011;63896;45.990;18.688;2023-12-22T12:31:37;5.03;;;1.80;;
75297;SDS011;63896;45.990;18.688;2023-12-22T12:34:43;12.75;;;3.95;;
75297;SDS011;63896;45.990;18.688;2023-12-22T12:37:46;6.23;;;1.73;;
75297;SDS011;63896;45.990;18.688;2023-12-22T12:40:50;2.92;;;0.80;;
75297;SDS011;63896;45.990;18.688;2023-12-22T12:43:54;2.95;;;1.40;;
75297;SDS011;63896;45.990;18.688;2023-12-22T12:46:58;2.85;;;1.05;;
75297;SDS011;63896;45.990;18.688;2023-12-22T12:50:03;4.60;;;1.35;;
75297;SDS011;63896;45.990;18.688;2023-12-22T12:53:07;4.93;;;1.23;;
75297;SDS011;63896;45.990;18.688;2023-12-22T12:56:10;3.28;;;1.13;;
75297;SDS011;63896;45.990;18.688;2023-12-22T12:59:13;2.03;;;1.10;;
75297;SDS011;63896;45.990;18.688;2023-12-22T13:02:18;1.88;;;0.95;;
75297;SDS011;63896;45.990;18.688;2023-12-22T13:05:22;6.43;;;1.40;;
75297;SDS011;63896;45.990;18.688;2023-12-22T13:08:25;2.97;;;0.97;;
75297;SDS011;63896;45.990;18.688;2023-12-22T13:11:43;5.05;;;1.98;;
75297;SDS011;63896;45.990;18.688;2023-12-22T13:14:51;5.55;;;2.40;;
75297;SDS011;63896;45.990;18.688;2023-12-22T13:17:54;3.50;;;1.33;;
75297;SDS011;63896;45.990;18.688;2023-12-22T13:20:57;5.45;;;1.75;;
75297;SDS011;63896;45.990;18.688;2023-12-22T13:24:09;3.83;;;1.20;;
75297;SDS011;63896;45.990;18.688;2023-12-22T13:27:15;4.07;;;1.70;;
75297;SDS011;63896;45.990;18.688;2023-12-22T13:30:53;7.85;;;1.33;;
75297;SDS011;63896;45.990;18.688;2023-12-22T13:33:48;6.18;;;2.10;;
75297;SDS011;63896;45.990;18.688;2023-12-22T13:36:51;2.03;;;1.00;;
75297;SDS011;63896;45.990;18.688;2023-12-22T13:39:54;3.63;;;1.20;;
75297;SDS011;63896;45.990;18.688;2023-12-22T13:42:57;2.13;;;0.88;;
75297;SDS011;63896;45.990;18.688;2023-12-22T13:46:01;2.78;;;1.00;;
75297;SDS011;63896;45.990;18.688;2023-12-22T13:49:04;1.83;;;0.98;;
75297;SDS011;63896;45.990;18.688;2023-12-22T13:52:07;4.03;;;1.50;;
75297;SDS011;63896;45.990;18.688;2023-12-22T13:55:11;4.63;;;1.70;;
75297;SDS011;63896;45.990;18.688;2023-12-22T13:58:14;4.65;;;1.80;;
75297;SDS011;63896;45.990;18.688;2023-12-22T14:01:17;5.63;;;2.40;;
75297;SDS011;63896;45.990;18.688;2023-12-22T14:04:20;5.93;;;2.90;;
75297;SDS011;63896;45.990;18.688;2023-12-22T14:07:23;4.37;;;1.63;;
75297;SDS011;63896;45.990;18.688;2023-12-22T14:10:26;5.10;;;1.87;;
75297;SDS011;63896;45.990;18.688;2023-12-22T14:13:28;10.25;;;3.38;;
75297;SDS011;63896;45.990;18.688;2023-12-22T14:16:31;3.15;;;1.67;;
75297;SDS011;63896;45.990;18.688;2023-12-22T14:19:34;3.95;;;1.40;;
75297;SDS011;63896;45.990;18.688;2023-12-22T14:22:37;5.77;;;2.43;;
75297;SDS011;63896;45.990;18.688;2023-12-22T14:25:40;6.50;;;2.90;;
75297;SDS011;63896;45.990;18.688;2023-12-22T14:28:43;5.07;;;2.38;;
75297;SDS011;63896;45.990;18.688;2023-12-22T14:31:49;11.75;;;3.72;;
75297;SDS011;63896;45.990;18.688;2023-12-22T14:34:53;13.00;;;4.10;;
75297;SDS011;63896;45.990;18.688;2023-12-22T14:37:56;14.20;;;5.30;;
75297;SDS011;63896;45.990;18.688;2023-12-22T14:40:59;9.13;;;3.40;;
75297;SDS011;63896;45.990;18.688;2023-12-22T14:44:01;13.77;;;5.28;;
75297;SDS011;63896;45.990;18.688;2023-12-22T14:47:05;10.13;;;4.18;;
75297;SDS011;63896;45.990;18.688;2023-12-22T14:50:12;11.95;;;4.13;;
75297;SDS011;63896;45.990;18.688;2023-12-22T14:53:15;13.73;;;3.90;;
75297;SDS011;63896;45.990;18.688;2023-12-22T14:56:18;7.47;;;3.27;;
75297;SDS011;63896;45.990;18.688;2023-12-22T14:59:20;7.40;;;3.50;;
75297;SDS011;63896;45.990;18.688;2023-12-22T15:02:23;6.10;;;2.92;;
75297;SDS011;63896;45.990;18.688;2023-12-22T15:05:26;8.40;;;3.25;;
75297;SDS011;63896;45.990;18.688;2023-12-22T15:08:36;7.50;;;2.90;;
75297;SDS011;63896;45.990;18.688;2023-12-22T15:11:44;5.10;;;2.37;;
75297;SDS011;63896;45.990;18.688;2023-12-22T15:14:47;5.95;;;2.15;;
75297;SDS011;63896;45.990;18.688;2023-12-22T15:17:50;4.75;;;1.88;;
75297;SDS011;63896;45.990;18.688;2023-12-22T15:20:54;3.72;;;2.20;;
75297;SDS011;63896;45.990;18.688;2023-12-22T15:23:56;5.37;;;2.70;;
75297;SDS011;63896;45.990;18.688;2023-12-22T15:26:59;6.17;;;2.27;;
75297;SDS011;63896;45.990;18.688;2023-12-22T15:30:02;9.02;;;2.42;;
75297;SDS011;63896;45.990;18.688;2023-12-22T15:33:05;7.85;;;3.15;;
75297;SDS011;63896;45.990;18.688;2023-12-22T15:36:08;5.38;;;2.78;;
75297;SDS011;63896;45.990;18.688;2023-12-22T15:39:11;6.17;;;2.70;;
75297;SDS011;63896;45.990;18.688;2023-12-22T15:42:14;5.50;;;2.47;;
75297;SDS011;63896;45.990;18.688;2023-12-22T15:45:16;8.15;;;3.45;;
75297;SDS011;63896;45.990;18.688;2023-12-22T15:48:19;11.75;;;4.05;;
75297;SDS011;63896;45.990;18.688;2023-12-22T15:51:22;7.70;;;3.60;;
75297;SDS011;63896;45.990;18.688;2023-12-22T15:54:25;7.93;;;3.03;;
75297;SDS011;63896;45.990;18.688;2023-12-22T15:57:28;6.07;;;2.80;;
75297;SDS011;63896;45.990;18.688;2023-12-22T16:00:31;6.15;;;3.05;;
75297;SDS011;63896;45.990;18.688;2023-12-22T16:03:37;9.27;;;4.18;;
75297;SDS011;63896;45.990;18.688;2023-12-22T16:06:40;7.60;;;3.00;;
75297;SDS011;63896;45.990;18.688;2023-12-22T16:09:43;7.00;;;2.57;;
75297;SDS011;63896;45.990;18.688;2023-12-22T16:12:46;7.53;;;3.70;;
75297;SDS011;63896;45.990;18.688;2023-12-22T16:15:49;9.52;;;4.15;;
75297;SDS011;63896;45.990;18.688;2023-12-22T16:18:52;8.93;;;4.00;;
75297;SDS011;63896;45.990;18.688;2023-12-22T16:21:54;8.57;;;4.22;;
75297;SDS011;63896;45.990;18.688;2023-12-22T16:24:57;9.93;;;4.83;;
75297;SDS011;63896;45.990;18.688;2023-12-22T16:28:00;7.43;;;3.90;;
75297;SDS011;63896;45.990;18.688;2023-12-22T16:31:03;10.32;;;5.25;;
75297;SDS011;63896;45.990;18.688;2023-12-22T16:34:06;12.60;;;6.10;;
75297;SDS011;63896;45.990;18.688;2023-12-22T16:37:09;11.43;;;5.40;;
75297;SDS011;63896;45.990;18.688;2023-12-22T16:40:13;14.43;;;4.73;;
75297;SDS011;63896;45.990;18.688;2023-12-22T16:43:16;14.77;;;6.53;;
75297;SDS011;63896;45.990;18.688;2023-12-22T16:46:19;13.18;;;5.72;;
75297;SDS011;63896;45.990;18.688;2023-12-22T16:49:22;9.48;;;4.00;;
75297;SDS011;63896;45.990;18.688;2023-12-22T16:52:25;10.43;;;4.70;;
75297;SDS011;63896;45.990;18.688;2023-12-22T16:55:29;15.67;;;6.60;;
75297;SDS011;63896;45.990;18.688;2023-12-22T16:58:32;20.03;;;6.77;;
75297;SDS011;63896;45.990;18.688;2023-12-22T17:01:35;13.00;;;5.45;;
75297;SDS011;63896;45.990;18.688;2023-12-22T17:04:44;25.20;;;10.25;;
75297;SDS011;63896;45.990;18.688;2023-12-22T17:07:47;25.83;;;12.25;;
75297;SDS011;63896;45.990;18.688;2023-12-22T17:10:51;14.07;;;6.82;;
75297;SDS011;63896;45.990;18.688;2023-12-22T17:13:54;14.80;;;5.40;;
75297;SDS011;63896;45.990;18.688;2023-12-22T17:16:56;8.75;;;4.00;;
75297;SDS011;63896;45.990;18.688;2023-12-22T17:20:00;12.40;;;5.03;;
75297;SDS011;63896;45.990;18.688;2023-12-22T17:23:05;8.95;;;3.28;;
75297;SDS011;63896;45.990;18.688;2023-12-22T17:26:07;2.33;;;0.40;;
75297;SDS011;63896;45.990;18.688;2023-12-22T17:29:12;2.50;;;0.93;;
75297;SDS011;63896;45.990;18.688;2023-12-22T17:32:15;2.20;;;0.60;;
75297;SDS011;63896;45.990;18.688;2023-12-22T17:35:20;3.47;;;0.77;;
75297;SDS011;63896;45.990;18.688;2023-12-22T17:38:23;2.10;;;0.60;;
75297;SDS011;63896;45.990;18.688;2023-12-22T17:41:26;2.70;;;0.53;;
75297;SDS011;63896;45.990;18.688;2023-12-22T17:44:29;1.67;;;0.47;;
75297;SDS011;63896;45.990;18.688;2023-12-22T17:47:32;2.35;;;0.82;;
75297;SDS011;63896;45.990;18.688;2023-12-22T17:50:35;3.10;;;1.08;;
75297;SDS011;63896;45.990;18.688;2023-12-22T17:53:38;1.85;;;0.90;;
75297;SDS011;63896;45.990;18.688;2023-12-22T17:56:40;1.47;;;0.50;;
75297;SDS011;63896;45.990;18.688;2023-12-22T17:59:43;7.13;;;1.27;;
75297;SDS011;63896;45.990;18.688;2023-12-22T18:02:46;12.00;;;2.53;;
75297;SDS011;63896;45.990;18.688;2023-12-22T18:05:52;1.40;;;0.40;;
75297;SDS011;63896;45.990;18.688;2023-12-22T18:08:55;2.08;;;0.75;;
75297;SDS011;63896;45.990;18.688;2023-12-22T18:11:57;1.57;;;0.60;;
75297;SDS011;63896;45.990;18.688;2023-12-22T18:15:00;1.27;;;0.37;;
75297;SDS011;63896;45.990;18.688;2023-12-22T18:18:05;1.73;;;0.80;;